Terminal Aerodrome Forecast
Issued by NWS

Home | Current Version | Previous Version | Text Only | Print | Product List | Glossary On
Versions: 1 2 3 4 5 6 7 8 9 10 11 12 13 14
000
FTUS45 KGJT 211134
TAFEGE
TAF
KEGE 211134Z 2112/2212 VRB03KT P6SM FEW110 SCT200
     FM212000 31006KT P6SM SCT110 SCT150
     FM220200 07005KT P6SM SCT090 BKN130
      AMD LTD TO CLD VIS AND WIND TIL 211300=

USA.gov is the U.S. government's official web portal to all federal, state and local government web resources and services.